createdAt,value
2022-11-20T00:01:54.969Z,22.35
2022-11-20T00:04:24.707Z,24.48
2022-11-20T00:06:54.136Z,23.10
2022-11-20T00:11:52.712Z,18.92
2022-11-20T00:14:23.555Z,22.40
2022-11-20T00:16:52.943Z,42.72
2022-11-20T00:19:21.746Z,47.60
2022-11-20T00:21:54.703Z,48.13
2022-11-20T00:24:25.351Z,52.17
2022-11-20T00:27:01.798Z,48.53
2022-11-20T00:29:31.004Z,47.63
2022-11-20T00:32:18.887Z,47.78
2022-11-20T00:34:52.584Z,39.28
2022-11-20T00:37:23.583Z,27.65
2022-11-20T00:40:00.313Z,25.40
2022-11-20T00:42:29.856Z,24.35
2022-11-20T00:45:02.416Z,23.95
2022-11-20T00:47:30.819Z,26.48
2022-11-20T00:50:01.800Z,27.20
2022-11-20T00:52:31.042Z,23.55
2022-11-20T00:55:05.053Z,19.90
2022-11-20T00:57:48.685Z,20.65
2022-11-20T01:00:18.818Z,19.13
2022-11-20T01:03:08.514Z,17.08
2022-11-20T01:05:39.419Z,13.27
2022-11-20T01:08:11.741Z,25.02
2022-11-20T01:10:41.245Z,23.13
2022-11-20T01:13:28.572Z,21.83
2022-11-20T01:16:05.132Z,21.33
2022-11-20T01:18:34.591Z,24.98
2022-11-20T01:21:05.297Z,24.17
2022-11-20T01:23:35.717Z,21.30
2022-11-20T01:26:07.409Z,21.10
2022-11-20T01:28:42.901Z,23.38
2022-11-20T01:31:14.888Z,21.38
2022-11-20T01:36:12.709Z,13.77
2022-11-20T01:38:39.964Z,23.30
2022-11-20T01:41:07.605Z,22.92
2022-11-20T01:43:35.072Z,21.23
2022-11-20T01:46:02.322Z,26.10
2022-11-20T01:48:49.848Z,20.73
2022-11-20T01:51:22.778Z,21.63
2022-11-20T01:53:51.011Z,20.52
2022-11-20T01:56:18.644Z,22.00
2022-11-20T01:58:49.024Z,24.85
2022-11-20T02:01:16.351Z,18.63
2022-11-20T02:03:44.587Z,23.48
2022-11-20T02:06:14.604Z,22.48
2022-11-20T02:08:41.912Z,21.55
2022-11-20T02:11:09.301Z,21.30
2022-11-20T02:13:45.645Z,22.50
2022-11-20T02:16:12.909Z,27.00
2022-11-20T02:18:40.661Z,22.73
2022-11-20T02:21:11.033Z,20.20
2022-11-20T02:23:46.643Z,25.38
2022-11-20T02:26:15.056Z,22.48
2022-11-20T02:28:42.360Z,19.35
2022-11-20T02:31:09.622Z,20.33
2022-11-20T02:33:36.878Z,18.10
2022-11-20T02:36:04.435Z,22.48
2022-11-20T02:38:31.757Z,22.60
2022-11-20T02:40:58.979Z,24.63
2022-11-20T02:43:26.240Z,19.35
2022-11-20T02:46:02.420Z,18.90
2022-11-20T02:48:33.669Z,20.60
2022-11-20T02:51:01.592Z,19.80
2022-11-20T02:53:28.997Z,20.90
2022-11-20T02:56:00.552Z,20.75
2022-11-20T02:58:27.915Z,22.08
2022-11-20T03:01:02.587Z,20.77
2022-11-20T03:03:29.958Z,20.30
2022-11-20T03:05:57.218Z,23.25
2022-11-20T03:08:24.587Z,23.15
2022-11-20T03:10:51.872Z,21.30
2022-11-20T03:13:22.151Z,23.85
2022-11-20T03:15:49.513Z,19.13
2022-11-20T03:18:16.786Z,21.60
2022-11-20T03:20:44.088Z,22.98
2022-11-20T03:23:13.573Z,20.13
2022-11-20T03:25:40.941Z,22.75
2022-11-20T03:28:08.172Z,21.60
2022-11-20T03:30:36.518Z,20.10
2022-11-20T03:33:06.923Z,22.65
2022-11-20T03:35:34.321Z,25.05
2022-11-20T03:38:01.626Z,20.20
2022-11-20T03:40:29.073Z,23.70
2022-11-20T03:42:56.447Z,21.73
2022-11-20T03:45:24.150Z,21.25
2022-11-20T03:47:51.504Z,21.98
2022-11-20T03:50:18.852Z,26.27
2022-11-20T03:52:46.058Z,23.52
2022-11-20T03:55:13.335Z,22.73
2022-11-20T03:57:40.651Z,23.33
2022-11-20T04:00:08.276Z,21.88
2022-11-20T04:02:35.548Z,24.63
2022-11-20T04:05:05.985Z,22.25
2022-11-20T04:07:35.474Z,22.02
2022-11-20T04:10:02.789Z,25.55
2022-11-20T04:12:33.150Z,22.75
2022-11-20T04:15:00.536Z,24.20
2022-11-20T04:17:27.830Z,26.92
2022-11-20T04:19:55.099Z,20.63
2022-11-20T04:22:22.424Z,23.92
2022-11-20T04:24:49.714Z,23.83
2022-11-20T04:27:16.966Z,24.20
2022-11-20T04:29:44.284Z,24.30
2022-11-20T04:32:13.186Z,23.25
2022-11-20T04:34:42.339Z,21.77
2022-11-20T04:37:09.695Z,17.70
2022-11-20T04:39:36.965Z,26.27
2022-11-20T04:42:25.097Z,21.00
2022-11-20T04:44:52.504Z,21.52
2022-11-20T04:47:37.716Z,22.67
2022-11-20T04:50:05.322Z,28.42
2022-11-20T04:52:32.602Z,23.88
2022-11-20T04:54:59.920Z,22.88
2022-11-20T04:57:27.256Z,25.85
2022-11-20T04:59:54.578Z,23.02
2022-11-20T05:02:22.273Z,23.73
2022-11-20T05:04:49.856Z,22.92
2022-11-20T05:07:17.172Z,21.00
2022-11-20T05:09:44.506Z,26.52
2022-11-20T05:12:11.904Z,21.73
2022-11-20T05:14:39.215Z,24.77
2022-11-20T05:17:12.043Z,26.98
2022-11-20T05:19:39.395Z,24.08
2022-11-20T05:22:06.687Z,25.20
2022-11-20T05:24:34.001Z,28.20
2022-11-20T05:27:03.643Z,24.52
2022-11-20T05:29:30.954Z,22.23
2022-11-20T05:31:58.269Z,24.80
2022-11-20T05:34:25.572Z,26.35
2022-11-20T05:36:52.789Z,26.05
2022-11-20T05:39:20.329Z,30.00
2022-11-20T05:42:10.824Z,23.65
2022-11-20T05:44:38.085Z,21.83
2022-11-20T05:47:05.449Z,26.23
2022-11-20T05:49:32.935Z,27.27
2022-11-20T05:52:00.259Z,25.98
2022-11-20T05:54:27.573Z,26.40
2022-11-20T05:56:54.942Z,22.83
2022-11-20T05:59:22.504Z,23.42
2022-11-20T06:01:50.021Z,24.10
2022-11-20T06:04:17.472Z,29.70
2022-11-20T06:06:44.794Z,23.98
2022-11-20T06:09:12.074Z,25.83
2022-11-20T06:11:39.411Z,24.65
2022-11-20T06:14:12.011Z,22.50
2022-11-20T06:16:39.442Z,26.00
2022-11-20T06:19:06.732Z,25.38
2022-11-20T06:21:34.021Z,28.17
2022-11-20T06:24:01.308Z,29.83
2022-11-20T06:26:30.486Z,24.58
2022-11-20T06:29:00.564Z,27.05
2022-11-20T06:31:28.167Z,30.60
2022-11-20T06:33:55.593Z,25.88
2022-11-20T06:36:24.006Z,27.10
2022-11-20T06:38:51.482Z,26.27
2022-11-20T06:41:19.977Z,31.02
2022-11-20T06:43:50.195Z,30.50
2022-11-20T06:46:18.654Z,28.00
2022-11-20T06:48:48.569Z,29.27
2022-11-20T06:53:43.182Z,29.55
2022-11-20T06:56:10.568Z,34.15
2022-11-20T06:58:38.131Z,28.00
2022-11-20T07:01:06.963Z,27.55
2022-11-20T07:03:34.538Z,21.87
2022-11-20T07:06:02.975Z,26.98
2022-11-20T07:08:30.408Z,29.00
2022-11-20T07:11:01.636Z,27.27
2022-11-20T07:13:29.721Z,27.73
2022-11-20T07:15:57.152Z,25.27
2022-11-20T07:18:26.767Z,31.33
2022-11-20T07:20:54.208Z,27.67
2022-11-20T07:23:21.456Z,33.78
2022-11-20T07:25:48.767Z,29.33
2022-11-20T07:28:16.100Z,27.83
2022-11-20T07:30:51.467Z,28.15
2022-11-20T07:33:18.816Z,27.67
2022-11-20T07:35:46.192Z,24.67
2022-11-20T07:38:13.710Z,29.63
2022-11-20T07:40:41.069Z,32.63
2022-11-20T07:43:08.667Z,33.05
2022-11-20T07:45:35.982Z,33.97
2022-11-20T07:48:03.340Z,32.15
2022-11-20T07:50:30.769Z,32.00
2022-11-20T07:53:07.458Z,31.90
2022-11-20T07:55:35.036Z,33.58
2022-11-20T07:58:02.342Z,30.05
2022-11-20T08:00:29.767Z,33.20
2022-11-20T08:02:57.832Z,29.95
2022-11-20T08:05:25.127Z,30.08
2022-11-20T08:07:52.473Z,33.45
2022-11-20T08:10:19.931Z,35.72
2022-11-20T08:13:12.081Z,37.80
2022-11-20T08:15:40.584Z,34.65
2022-11-20T08:21:00.050Z,39.17
2022-11-20T08:23:27.316Z,37.95
2022-11-20T08:25:54.607Z,33.33
2022-11-20T08:28:22.532Z,31.52
2022-11-20T08:30:51.264Z,36.22
2022-11-20T08:33:21.820Z,31.45
2022-11-20T08:35:49.120Z,37.08
2022-11-20T08:38:16.416Z,30.67
2022-11-20T08:41:03.755Z,33.22
2022-11-20T08:43:31.058Z,33.92
2022-11-20T08:45:58.871Z,36.83
2022-11-20T08:48:27.964Z,32.67
2022-11-20T08:50:55.202Z,35.45
2022-11-20T08:53:22.468Z,36.22
2022-11-20T08:55:49.753Z,31.63
2022-11-20T08:58:17.072Z,34.55
2022-11-20T09:00:46.586Z,32.35
2022-11-20T09:03:14.449Z,32.22
2022-11-20T09:05:41.865Z,37.03
2022-11-20T09:08:09.179Z,33.95
2022-11-20T09:10:37.549Z,34.10
2022-11-20T09:13:04.858Z,34.58
2022-11-20T09:15:32.149Z,38.13
2022-11-20T09:18:00.641Z,35.75
2022-11-20T09:20:29.663Z,34.05
2022-11-20T09:22:57.294Z,33.15
2022-11-20T09:25:24.670Z,31.98
2022-11-20T09:27:59.169Z,30.60
2022-11-20T09:30:27.298Z,34.28
2022-11-20T09:32:54.709Z,37.90
2022-11-20T09:35:22.043Z,34.83
2022-11-20T09:37:49.510Z,31.40
2022-11-20T09:40:27.178Z,33.42
2022-11-20T09:43:03.792Z,36.08
2022-11-20T09:45:37.375Z,36.83
2022-11-20T09:48:31.197Z,35.45
2022-11-20T09:51:04.797Z,29.27
2022-11-20T09:53:38.324Z,32.83
2022-11-20T09:56:06.293Z,32.78
2022-11-20T09:58:37.040Z,36.33
2022-11-20T10:01:15.735Z,64.97
2022-11-20T10:03:58.042Z,37.40
2022-11-20T10:06:59.501Z,36.40
2022-11-20T10:09:39.223Z,36.72
2022-11-20T10:12:25.409Z,33.78
2022-11-20T10:14:58.953Z,31.83
2022-11-20T10:17:41.027Z,33.53
2022-11-20T10:20:14.580Z,34.20
2022-11-20T10:22:42.220Z,37.53
2022-11-20T10:25:18.582Z,31.92
2022-11-20T10:27:54.956Z,34.03
2022-11-20T10:30:25.882Z,33.80
2022-11-20T10:32:55.018Z,35.75
2022-11-20T10:35:28.394Z,29.50
2022-11-20T10:38:01.259Z,36.22
2022-11-20T10:40:40.694Z,34.45
2022-11-20T10:43:19.544Z,35.28
2022-11-20T10:45:53.034Z,32.47
2022-11-20T10:48:20.851Z,38.00
2022-11-20T10:51:24.093Z,34.67
2022-11-20T10:54:03.309Z,37.65
2022-11-20T10:56:40.163Z,38.85
2022-11-20T10:59:32.294Z,35.85
2022-11-20T11:02:02.677Z,37.63
2022-11-20T11:04:39.802Z,38.35
2022-11-20T11:07:33.320Z,37.30
2022-11-20T11:10:00.672Z,38.65
2022-11-20T11:12:29.616Z,43.38
2022-11-20T11:14:58.497Z,41.60
2022-11-20T11:17:31.174Z,41.13
2022-11-20T11:20:03.391Z,46.00
2022-11-20T11:22:32.257Z,42.00
2022-11-20T11:24:59.658Z,41.50
2022-11-20T11:27:27.216Z,63.53
2022-11-20T11:30:04.277Z,43.25
2022-11-20T11:32:31.749Z,43.17
2022-11-20T11:35:07.311Z,44.45
2022-11-20T11:37:36.796Z,42.67
2022-11-20T11:42:59.653Z,44.30
2022-11-20T11:45:27.375Z,41.03
2022-11-20T11:47:56.508Z,48.38
2022-11-20T11:50:26.089Z,44.97
2022-11-20T11:53:15.160Z,50.33
2022-11-20T11:55:46.241Z,41.95
2022-11-20T11:58:16.835Z,50.25
2022-11-20T12:00:50.933Z,50.72
2022-11-20T12:03:24.494Z,50.08
2022-11-20T12:05:57.149Z,55.83
2022-11-20T12:08:38.937Z,50.28
2022-11-20T12:11:12.440Z,59.35
2022-11-20T12:14:06.309Z,57.83
2022-11-20T12:16:36.544Z,51.80
2022-11-20T12:19:03.847Z,53.42
2022-11-20T12:21:47.299Z,56.53
2022-11-20T12:24:37.843Z,66.43
2022-11-20T12:27:16.772Z,65.45
2022-11-20T12:30:02.949Z,69.38
2022-11-20T12:32:41.057Z,61.50
2022-11-20T12:35:11.440Z,59.95
2022-11-20T12:37:57.923Z,62.88
2022-11-20T12:40:45.661Z,68.30
2022-11-20T12:43:45.239Z,66.85
2022-11-20T12:46:20.038Z,63.58
2022-11-20T12:48:47.361Z,60.33
2022-11-20T12:51:22.977Z,67.13
2022-11-20T12:54:01.061Z,70.82
2022-11-20T12:56:31.372Z,64.70
2022-11-20T12:59:16.398Z,69.55
2022-11-20T13:01:52.735Z,60.90
2022-11-20T13:04:38.443Z,70.47
2022-11-20T13:07:07.538Z,63.40
2022-11-20T13:09:36.516Z,59.72
2022-11-20T13:12:15.419Z,61.10
2022-11-20T13:14:50.273Z,48.53
2022-11-20T13:17:25.005Z,64.65
2022-11-20T13:20:04.931Z,65.35
2022-11-20T13:22:51.916Z,64.45
2022-11-20T13:25:41.145Z,58.85
2022-11-20T13:28:11.403Z,58.65
2022-11-20T13:30:50.189Z,63.05
2022-11-20T13:33:33.728Z,60.73
2022-11-20T13:36:04.547Z,62.63
2022-11-20T13:38:44.997Z,66.90
2022-11-20T13:41:32.265Z,64.60
2022-11-20T13:44:09.173Z,65.07
2022-11-20T13:46:40.578Z,67.85
2022-11-20T13:49:43.865Z,75.85
2022-11-20T13:52:37.567Z,67.65
2022-11-20T13:55:27.445Z,71.35
2022-11-20T13:58:13.664Z,68.35
2022-11-20T14:00:53.522Z,63.95
2022-11-20T14:03:43.714Z,63.88
2022-11-20T14:06:32.675Z,61.72
2022-11-20T14:09:00.606Z,72.50
2022-11-20T14:11:29.148Z,74.35
2022-11-20T14:13:56.420Z,65.20
2022-11-20T14:16:24.579Z,66.80
2022-11-20T14:18:52.183Z,69.82
2022-11-20T14:21:30.443Z,75.07
2022-11-20T14:24:08.850Z,70.78
2022-11-20T14:26:49.357Z,72.05
2022-11-20T14:29:18.031Z,70.38
2022-11-20T14:31:51.181Z,76.38
2022-11-20T14:34:23.481Z,74.05
2022-11-20T14:39:27.185Z,71.07
2022-11-20T14:41:55.363Z,76.13
2022-11-20T14:44:25.322Z,74.78
2022-11-20T14:46:53.529Z,71.55
2022-11-20T14:49:21.103Z,74.32
2022-11-20T14:51:48.473Z,70.18
2022-11-20T14:54:22.225Z,75.40
2022-11-20T14:56:57.129Z,77.35
2022-11-20T14:59:28.098Z,84.93
2022-11-20T15:01:57.190Z,77.95
2022-11-20T15:04:24.895Z,66.43
2022-11-20T15:06:53.269Z,78.25
2022-11-20T15:09:20.709Z,77.07
2022-11-20T15:11:58.734Z,81.88
2022-11-20T15:14:26.938Z,70.63
2022-11-20T15:16:55.501Z,81.70
2022-11-20T15:19:24.018Z,76.15
2022-11-20T15:21:51.697Z,70.53
2022-11-20T15:24:19.135Z,77.50
2022-11-20T15:26:46.594Z,74.95
2022-11-20T15:29:19.594Z,73.25
2022-11-20T15:31:47.206Z,67.97
2022-11-20T15:34:15.704Z,79.38
2022-11-20T15:36:43.535Z,73.80
2022-11-20T15:39:12.381Z,72.18
2022-11-20T15:41:39.774Z,67.20
2022-11-20T15:44:07.595Z,79.20
2022-11-20T15:46:55.729Z,68.28
2022-11-20T15:49:27.787Z,69.78
2022-11-20T15:51:56.137Z,75.82
2022-11-20T15:54:28.522Z,74.68
2022-11-20T15:56:56.895Z,70.75
2022-11-20T15:59:25.744Z,66.45
2022-11-20T16:01:56.134Z,65.45
2022-11-20T16:04:24.627Z,55.38
2022-11-20T16:06:57.734Z,58.03
2022-11-20T16:09:28.315Z,67.05
2022-11-20T16:11:59.492Z,59.78
2022-11-20T16:14:49.748Z,62.67
2022-11-20T16:17:39.690Z,58.92
2022-11-20T16:20:09.063Z,48.55
2022-11-20T16:22:37.831Z,60.88
2022-11-20T16:25:09.577Z,63.72
2022-11-20T16:27:37.515Z,53.83
2022-11-20T16:30:06.426Z,60.40
2022-11-20T16:32:40.944Z,59.63
2022-11-20T16:35:08.992Z,62.72
2022-11-20T16:37:36.978Z,67.40
2022-11-20T16:40:07.586Z,59.50
2022-11-20T16:42:36.168Z,58.55
2022-11-20T16:45:04.561Z,56.67
2022-11-20T16:47:36.835Z,56.88
2022-11-20T16:50:05.308Z,61.40
2022-11-20T16:52:33.275Z,60.35
2022-11-20T16:55:04.321Z,53.80
2022-11-20T16:57:36.251Z,60.90
2022-11-20T17:00:06.655Z,61.10
2022-11-20T17:02:34.611Z,57.78
2022-11-20T17:05:03.578Z,56.40
2022-11-20T17:07:40.727Z,64.03
2022-11-20T17:10:11.184Z,58.05
2022-11-20T17:12:46.680Z,63.00
2022-11-20T17:15:15.747Z,58.35
2022-11-20T17:17:45.417Z,63.85
2022-11-20T17:20:15.395Z,61.67
2022-11-20T17:22:44.879Z,69.93
2022-11-20T17:25:25.752Z,69.80
2022-11-20T17:28:00.785Z,68.18
2022-11-20T17:30:36.379Z,59.35
2022-11-20T17:33:07.997Z,63.58
2022-11-20T17:35:38.317Z,76.53
2022-11-20T17:38:06.629Z,67.68
2022-11-20T17:40:37.336Z,82.07
2022-11-20T17:43:05.330Z,61.78
2022-11-20T17:45:36.690Z,107.10
2022-11-20T17:48:04.384Z,62.53
2022-11-20T17:50:31.802Z,66.85
2022-11-20T17:52:59.049Z,64.65
2022-11-20T17:55:26.330Z,63.95
2022-11-20T17:57:56.479Z,65.38
2022-11-20T18:00:25.169Z,63.55
2022-11-20T18:02:56.014Z,62.28
2022-11-20T18:05:23.591Z,58.33
2022-11-20T18:07:53.584Z,67.07
2022-11-20T18:10:20.899Z,59.80
2022-11-20T18:12:48.175Z,55.03
2022-11-20T18:15:15.644Z,65.45
2022-11-20T18:17:43.092Z,62.83
2022-11-20T18:22:58.034Z,65.85
2022-11-20T18:25:25.290Z,60.92
2022-11-20T18:27:52.715Z,63.55
2022-11-20T18:30:20.025Z,57.92
2022-11-20T18:32:47.307Z,57.90
2022-11-20T18:35:14.578Z,65.53
2022-11-20T18:37:41.914Z,63.33
2022-11-20T18:40:09.598Z,52.92
2022-11-20T18:43:10.314Z,58.95
2022-11-20T18:45:37.616Z,56.05
2022-11-20T18:48:04.890Z,67.40
2022-11-20T18:50:32.135Z,64.18
2022-11-20T18:52:59.508Z,58.53
2022-11-20T18:55:26.756Z,61.00
2022-11-20T18:57:55.132Z,59.60
2022-11-20T19:00:24.773Z,70.97
2022-11-20T19:02:54.204Z,63.83
2022-11-20T19:05:21.458Z,63.40
2022-11-20T19:07:48.825Z,64.45
2022-11-20T19:10:18.958Z,67.25
2022-11-20T19:12:46.173Z,65.43
2022-11-20T19:15:13.398Z,60.30
2022-11-20T19:17:40.730Z,58.03
2022-11-20T19:20:08.261Z,64.97
2022-11-20T19:22:35.482Z,59.53
2022-11-20T19:25:02.790Z,60.35
2022-11-20T19:27:30.068Z,55.92
2022-11-20T19:30:03.124Z,60.92
2022-11-20T19:32:30.848Z,64.65
2022-11-20T19:34:58.278Z,65.05
2022-11-20T19:37:25.540Z,66.90
2022-11-20T19:39:52.866Z,67.25
2022-11-20T19:42:20.124Z,71.20
2022-11-20T19:44:47.658Z,67.15
2022-11-20T19:47:15.149Z,71.78
2022-11-20T19:49:42.546Z,72.25
2022-11-20T19:52:09.847Z,73.40
2022-11-20T19:54:37.119Z,74.88
2022-11-20T19:57:04.514Z,68.60
2022-11-20T19:59:31.903Z,76.72
2022-11-20T20:01:59.244Z,74.68
2022-11-20T20:04:26.769Z,67.35
2022-11-20T20:06:54.092Z,68.00
2022-11-20T20:09:23.702Z,63.22
2022-11-20T20:11:51.237Z,58.33
2022-11-20T20:14:19.237Z,67.60
2022-11-20T20:16:46.656Z,72.53
2022-11-20T20:19:17.003Z,61.95
2022-11-20T20:21:44.835Z,62.42
2022-11-20T20:24:12.458Z,72.18
2022-11-20T20:26:39.779Z,65.95
2022-11-20T20:29:07.181Z,67.78
2022-11-20T20:31:34.504Z,64.13
2022-11-20T20:34:03.280Z,69.78
2022-11-20T20:36:30.556Z,58.73
2022-11-20T20:39:02.839Z,76.32
2022-11-20T20:41:30.286Z,65.72
2022-11-20T20:44:16.128Z,69.43
2022-11-20T20:46:43.811Z,67.18
2022-11-20T20:49:11.120Z,66.53
2022-11-20T20:51:38.437Z,58.60
2022-11-20T20:54:06.057Z,63.45
2022-11-20T20:56:33.403Z,66.72
2022-11-20T20:59:00.610Z,61.08
2022-11-20T21:01:30.604Z,61.42
2022-11-20T21:03:58.363Z,66.45
2022-11-20T21:06:26.153Z,68.10
2022-11-20T21:08:53.584Z,62.92
2022-11-20T21:11:21.162Z,61.97
2022-11-20T21:13:49.139Z,67.55
2022-11-20T21:16:22.342Z,61.42
2022-11-20T21:18:49.705Z,61.58
2022-11-20T21:21:37.825Z,58.65
2022-11-20T21:24:05.372Z,55.45
2022-11-20T21:26:32.641Z,60.40
2022-11-20T21:28:59.965Z,61.47
2022-11-20T21:31:28.720Z,57.80
2022-11-20T21:33:56.741Z,60.53
2022-11-20T21:36:26.920Z,67.90
2022-11-20T21:38:55.362Z,66.07
2022-11-20T21:41:23.043Z,69.00
2022-11-20T21:44:15.906Z,62.40
2022-11-20T21:46:39.844Z,65.68
2022-11-20T21:49:07.059Z,74.38
2022-11-20T21:51:34.342Z,69.63
2022-11-20T21:54:01.681Z,65.90
2022-11-20T21:56:29.046Z,67.85
2022-11-20T21:58:56.361Z,59.03
2022-11-20T22:01:28.095Z,64.57
2022-11-20T22:03:57.298Z,63.83
2022-11-20T22:06:25.793Z,60.17
2022-11-20T22:08:53.244Z,64.05
2022-11-20T22:11:21.378Z,62.63
2022-11-20T22:14:08.446Z,62.78
2022-11-20T22:16:36.408Z,64.63
2022-11-20T22:19:04.270Z,56.28
2022-11-20T22:21:31.969Z,66.32
2022-11-20T22:23:59.597Z,57.38
2022-11-20T22:26:27.964Z,57.72
2022-11-20T22:28:56.299Z,58.13
2022-11-20T22:31:24.854Z,60.67
2022-11-20T22:33:52.343Z,60.42
2022-11-20T22:36:20.931Z,60.53
2022-11-20T22:38:48.505Z,62.20
2022-11-20T22:41:19.559Z,63.70
2022-11-20T22:43:47.161Z,67.28
2022-11-20T22:46:18.861Z,61.63
2022-11-20T22:49:06.456Z,67.22
2022-11-20T22:51:41.068Z,62.47
2022-11-20T22:54:09.830Z,67.07
2022-11-20T22:56:37.119Z,53.57
2022-11-20T22:59:04.649Z,63.72
2022-11-20T23:01:33.138Z,61.08
2022-11-20T23:04:05.175Z,62.17
2022-11-20T23:06:36.605Z,68.88
2022-11-20T23:09:07.925Z,75.10
2022-11-20T23:11:35.722Z,66.90
2022-11-20T23:14:04.940Z,70.22
2022-11-20T23:16:32.880Z,62.65
2022-11-20T23:19:01.991Z,61.78
2022-11-20T23:21:29.359Z,51.85
2022-11-20T23:23:57.356Z,61.33
2022-11-20T23:26:25.598Z,65.40
2022-11-20T23:28:53.850Z,70.32
2022-11-20T23:31:21.634Z,73.53
2022-11-20T23:33:49.329Z,63.85
2022-11-20T23:36:23.346Z,61.17
2022-11-20T23:38:51.210Z,63.10
2022-11-20T23:41:19.377Z,70.68
2022-11-20T23:43:47.553Z,56.13
2022-11-20T23:46:16.924Z,91.78
2022-11-20T23:48:45.963Z,91.80
2022-11-20T23:51:13.700Z,74.90
2022-11-20T23:53:41.675Z,77.03
2022-11-20T23:56:09.638Z,76.85
2022-11-20T23:58:38.230Z,64.80
